sensor_id;sensor_type;location;lat;lon;timestamp;temperature;humidity
19829;DHT22;10075;50.924;4.396;2023-03-01T00:01:11;2.40;99.90
19829;DHT22;10075;50.924;4.396;2023-03-01T00:03:38;2.30;99.90
19829;DHT22;10075;50.924;4.396;2023-03-01T00:06:06;2.40;99.90
19829;DHT22;10075;50.924;4.396;2023-03-01T00:08:34;2.40;99.90
19829;DHT22;10075;50.924;4.396;2023-03-01T00:11:03;2.30;99.90
19829;DHT22;10075;50.924;4.396;2023-03-01T00:13:31;2.30;99.90
19829;DHT22;10075;50.924;4.396;2023-03-01T00:16:01;2.30;99.90
19829;DHT22;10075;50.924;4.396;2023-03-01T00:18:28;2.20;99.90
19829;DHT22;10075;50.924;4.396;2023-03-01T00:20:56;2.20;99.90
19829;DHT22;10075;50.924;4.396;2023-03-01T00:23:24;2.20;99.90
19829;DHT22;10075;50.924;4.396;2023-03-01T00:25:51;2.20;99.90
19829;DHT22;10075;50.924;4.396;2023-03-01T00:28:19;2.20;99.90
19829;DHT22;10075;50.924;4.396;2023-03-01T00:30:46;2.20;99.90
19829;DHT22;10075;50.924;4.396;2023-03-01T00:33:15;2.20;99.90
19829;DHT22;10075;50.924;4.396;2023-03-01T00:35:42;2.20;99.90
19829;DHT22;10075;50.924;4.396;2023-03-01T00:38:09;2.20;99.90
19829;DHT22;10075;50.924;4.396;2023-03-01T00:40:36;2.20;99.90
19829;DHT22;10075;50.924;4.396;2023-03-01T00:43:03;2.20;99.90
19829;DHT22;10075;50.924;4.396;2023-03-01T00:45:32;2.10;99.90
19829;DHT22;10075;50.924;4.396;2023-03-01T00:47:59;2.00;99.90
19829;DHT22;10075;50.924;4.396;2023-03-01T00:50:28;2.00;99.90
19829;DHT22;10075;50.924;4.396;2023-03-01T00:52:56;2.00;99.90
19829;DHT22;10075;50.924;4.396;2023-03-01T00:55:23;2.10;99.90
19829;DHT22;10075;50.924;4.396;2023-03-01T00:57:51;2.00;99.90
19829;DHT22;10075;50.924;4.396;2023-03-01T01:00:19;2.10;99.90
19829;DHT22;10075;50.924;4.396;2023-03-01T01:02:46;2.00;99.90
19829;DHT22;10075;50.924;4.396;2023-03-01T01:05:14;2.00;99.90
19829;DHT22;10075;50.924;4.396;2023-03-01T01:07:48;1.90;99.90
19829;DHT22;10075;50.924;4.396;2023-03-01T01:10:15;1.90;99.90
19829;DHT22;10075;50.924;4.396;2023-03-01T01:12:44;1.90;99.90
19829;DHT22;10075;50.924;4.396;2023-03-01T01:15:11;1.90;99.90
19829;DHT22;10075;50.924;4.396;2023-03-01T01:17:39;1.90;99.90
19829;DHT22;10075;50.924;4.396;2023-03-01T01:20:08;1.90;99.90
19829;DHT22;10075;50.924;4.396;2023-03-01T01:22:35;1.90;99.90
19829;DHT22;10075;50.924;4.396;2023-03-01T01:25:04;1.90;99.90
19829;DHT22;10075;50.924;4.396;2023-03-01T01:27:31;1.90;99.90
19829;DHT22;10075;50.924;4.396;2023-03-01T01:29:58;1.90;99.90
19829;DHT22;10075;50.924;4.396;2023-03-01T01:32:25;1.80;99.90
19829;DHT22;10075;50.924;4.396;2023-03-01T01:34:52;1.80;99.90
19829;DHT22;10075;50.924;4.396;2023-03-01T01:37:19;1.80;99.90
19829;DHT22;10075;50.924;4.396;2023-03-01T01:39:46;1.80;99.90
19829;DHT22;10075;50.924;4.396;2023-03-01T01:42:16;1.80;99.90
19829;DHT22;10075;50.924;4.396;2023-03-01T01:44:45;1.80;99.90
19829;DHT22;10075;50.924;4.396;2023-03-01T01:47:15;1.70;99.90
19829;DHT22;10075;50.924;4.396;2023-03-01T01:49:46;1.70;99.90
19829;DHT22;10075;50.924;4.396;2023-03-01T01:52:17;1.80;99.90
19829;DHT22;10075;50.924;4.396;2023-03-01T01:54:50;1.80;99.90
19829;DHT22;10075;50.924;4.396;2023-03-01T01:57:22;1.80;99.90
19829;DHT22;10075;50.924;4.396;2023-03-01T01:59:53;1.70;99.90
19829;DHT22;10075;50.924;4.396;2023-03-01T02:02:20;1.70;99.90
19829;DHT22;10075;50.924;4.396;2023-03-01T02:04:48;1.70;99.90
19829;DHT22;10075;50.924;4.396;2023-03-01T02:07:18;1.70;99.90
19829;DHT22;10075;50.924;4.396;2023-03-01T02:09:46;1.70;99.90
19829;DHT22;10075;50.924;4.396;2023-03-01T02:12:14;1.70;99.90
19829;DHT22;10075;50.924;4.396;2023-03-01T02:14:44;1.70;99.90
19829;DHT22;10075;50.924;4.396;2023-03-01T02:17:12;1.60;99.90
19829;DHT22;10075;50.924;4.396;2023-03-01T02:19:48;1.60;99.90
19829;DHT22;10075;50.924;4.396;2023-03-01T02:22:22;1.60;99.90
19829;DHT22;10075;50.924;4.396;2023-03-01T02:25:01;1.50;99.90
19829;DHT22;10075;50.924;4.396;2023-03-01T02:27:36;1.50;99.90
19829;DHT22;10075;50.924;4.396;2023-03-01T02:30:06;1.50;99.90
19829;DHT22;10075;50.924;4.396;2023-03-01T02:32:34;1.40;99.90
19829;DHT22;10075;50.924;4.396;2023-03-01T02:35:00;1.40;99.90
19829;DHT22;10075;50.924;4.396;2023-03-01T02:37:27;1.40;99.90
19829;DHT22;10075;50.924;4.396;2023-03-01T02:39:59;1.40;99.90
19829;DHT22;10075;50.924;4.396;2023-03-01T02:42:30;1.40;99.90
19829;DHT22;10075;50.924;4.396;2023-03-01T02:44:58;1.40;99.90
19829;DHT22;10075;50.924;4.396;2023-03-01T02:47:27;1.40;99.90
19829;DHT22;10075;50.924;4.396;2023-03-01T02:49:54;1.30;99.90
19829;DHT22;10075;50.924;4.396;2023-03-01T02:52:33;1.30;99.90
19829;DHT22;10075;50.924;4.396;2023-03-01T02:55:07;1.30;99.90
19829;DHT22;10075;50.924;4.396;2023-03-01T02:57:37;1.30;99.90
19829;DHT22;10075;50.924;4.396;2023-03-01T03:00:07;1.20;99.90
19829;DHT22;10075;50.924;4.396;2023-03-01T03:02:36;1.20;99.90
19829;DHT22;10075;50.924;4.396;2023-03-01T03:05:05;1.20;99.90
19829;DHT22;10075;50.924;4.396;2023-03-01T03:07:34;1.20;99.90
19829;DHT22;10075;50.924;4.396;2023-03-01T03:10:02;1.20;99.90
19829;DHT22;10075;50.924;4.396;2023-03-01T03:12:29;1.20;99.90
19829;DHT22;10075;50.924;4.396;2023-03-01T03:14:56;1.10;99.90
19829;DHT22;10075;50.924;4.396;2023-03-01T03:17:23;1.00;99.90
19829;DHT22;10075;50.924;4.396;2023-03-01T03:19:51;1.00;99.90
19829;DHT22;10075;50.924;4.396;2023-03-01T03:22:18;1.00;99.90
19829;DHT22;10075;50.924;4.396;2023-03-01T03:24:45;1.00;99.90
19829;DHT22;10075;50.924;4.396;2023-03-01T03:27:12;0.90;99.90
19829;DHT22;10075;50.924;4.396;2023-03-01T03:29:39;0.80;99.90
19829;DHT22;10075;50.924;4.396;2023-03-01T03:32:06;0.80;99.90
19829;DHT22;10075;50.924;4.396;2023-03-01T03:34:33;0.80;99.90
19829;DHT22;10075;50.924;4.396;2023-03-01T03:37:01;0.80;99.90
19829;DHT22;10075;50.924;4.396;2023-03-01T03:39:29;0.80;99.90
19829;DHT22;10075;50.924;4.396;2023-03-01T03:42:01;0.70;99.90
19829;DHT22;10075;50.924;4.396;2023-03-01T03:44:28;0.70;99.90
19829;DHT22;10075;50.924;4.396;2023-03-01T03:46:55;0.70;99.90
19829;DHT22;10075;50.924;4.396;2023-03-01T03:49:22;0.70;99.90
19829;DHT22;10075;50.924;4.396;2023-03-01T03:51:49;0.70;99.90
19829;DHT22;10075;50.924;4.396;2023-03-01T03:54:17;0.70;99.90
19829;DHT22;10075;50.924;4.396;2023-03-01T03:56:44;0.70;99.90
19829;DHT22;10075;50.924;4.396;2023-03-01T03:59:11;0.70;99.90
19829;DHT22;10075;50.924;4.396;2023-03-01T04:01:38;0.70;99.90
19829;DHT22;10075;50.924;4.396;2023-03-01T04:04:05;0.70;99.90
19829;DHT22;10075;50.924;4.396;2023-03-01T04:06:33;0.70;99.90
19829;DHT22;10075;50.924;4.396;2023-03-01T04:09:00;0.70;99.90
19829;DHT22;10075;50.924;4.396;2023-03-01T04:11:30;0.70;99.90
19829;DHT22;10075;50.924;4.396;2023-03-01T04:13:58;0.70;99.90
19829;DHT22;10075;50.924;4.396;2023-03-01T04:16:25;0.80;99.90
19829;DHT22;10075;50.924;4.396;2023-03-01T04:18:53;0.80;99.90
19829;DHT22;10075;50.924;4.396;2023-03-01T04:21:20;0.80;99.90
19829;DHT22;10075;50.924;4.396;2023-03-01T04:23:47;0.80;99.90
19829;DHT22;10075;50.924;4.396;2023-03-01T04:26:18;0.80;99.90
19829;DHT22;10075;50.924;4.396;2023-03-01T04:28:47;0.80;99.90
19829;DHT22;10075;50.924;4.396;2023-03-01T04:31:18;0.80;99.90
19829;DHT22;10075;50.924;4.396;2023-03-01T04:33:48;0.80;99.90
19829;DHT22;10075;50.924;4.396;2023-03-01T04:36:18;0.80;99.90
19829;DHT22;10075;50.924;4.396;2023-03-01T04:38:45;0.70;99.90
19829;DHT22;10075;50.924;4.396;2023-03-01T04:41:15;0.80;99.90
19829;DHT22;10075;50.924;4.396;2023-03-01T04:43:43;0.80;99.90
19829;DHT22;10075;50.924;4.396;2023-03-01T04:46:13;0.80;99.90
19829;DHT22;10075;50.924;4.396;2023-03-01T04:48:42;0.70;99.90
19829;DHT22;10075;50.924;4.396;2023-03-01T04:51:10;0.70;99.90
19829;DHT22;10075;50.924;4.396;2023-03-01T04:53:39;0.60;99.90
19829;DHT22;10075;50.924;4.396;2023-03-01T04:56:07;0.60;99.90
19829;DHT22;10075;50.924;4.396;2023-03-01T04:58:34;0.60;99.90
19829;DHT22;10075;50.924;4.396;2023-03-01T05:01:01;0.50;99.90
19829;DHT22;10075;50.924;4.396;2023-03-01T05:03:29;0.50;99.90
19829;DHT22;10075;50.924;4.396;2023-03-01T05:05:58;0.60;99.90
19829;DHT22;10075;50.924;4.396;2023-03-01T05:08:26;0.60;99.90
19829;DHT22;10075;50.924;4.396;2023-03-01T05:10:53;0.50;99.90
19829;DHT22;10075;50.924;4.396;2023-03-01T05:13:21;0.50;99.90
19829;DHT22;10075;50.924;4.396;2023-03-01T05:15:48;0.50;99.90
19829;DHT22;10075;50.924;4.396;2023-03-01T05:18:19;0.50;99.90
19829;DHT22;10075;50.924;4.396;2023-03-01T05:20:48;0.40;99.90
19829;DHT22;10075;50.924;4.396;2023-03-01T05:23:15;0.40;99.90
19829;DHT22;10075;50.924;4.396;2023-03-01T05:25:42;0.50;99.90
19829;DHT22;10075;50.924;4.396;2023-03-01T05:28:11;0.40;99.90
19829;DHT22;10075;50.924;4.396;2023-03-01T05:30:38;0.40;99.90
19829;DHT22;10075;50.924;4.396;2023-03-01T05:33:06;0.40;99.90
19829;DHT22;10075;50.924;4.396;2023-03-01T05:35:39;0.40;99.90
19829;DHT22;10075;50.924;4.396;2023-03-01T05:38:09;0.40;99.90
19829;DHT22;10075;50.924;4.396;2023-03-01T05:40:39;0.40;99.90
19829;DHT22;10075;50.924;4.396;2023-03-01T05:43:06;0.40;99.90
19829;DHT22;10075;50.924;4.396;2023-03-01T05:45:33;0.40;99.90
19829;DHT22;10075;50.924;4.396;2023-03-01T05:48:02;0.30;99.90
19829;DHT22;10075;50.924;4.396;2023-03-01T05:50:33;0.30;99.90
19829;DHT22;10075;50.924;4.396;2023-03-01T05:53:03;0.30;99.90
19829;DHT22;10075;50.924;4.396;2023-03-01T05:55:33;0.30;99.90
19829;DHT22;10075;50.924;4.396;2023-03-01T05:58:01;0.30;99.90
19829;DHT22;10075;50.924;4.396;2023-03-01T06:00:30;0.30;99.90
19829;DHT22;10075;50.924;4.396;2023-03-01T06:02:58;0.30;99.90
19829;DHT22;10075;50.924;4.396;2023-03-01T06:05:26;0.30;99.90
19829;DHT22;10075;50.924;4.396;2023-03-01T06:07:53;0.30;99.90
19829;DHT22;10075;50.924;4.396;2023-03-01T06:10:21;0.30;99.90
19829;DHT22;10075;50.924;4.396;2023-03-01T06:12:50;0.30;99.90
19829;DHT22;10075;50.924;4.396;2023-03-01T06:15:17;0.30;99.90
19829;DHT22;10075;50.924;4.396;2023-03-01T06:17:45;0.30;99.90
19829;DHT22;10075;50.924;4.396;2023-03-01T06:20:14;0.30;99.90
19829;DHT22;10075;50.924;4.396;2023-03-01T06:22:41;0.30;99.90
19829;DHT22;10075;50.924;4.396;2023-03-01T06:25:09;0.30;99.90
19829;DHT22;10075;50.924;4.396;2023-03-01T06:27:36;0.40;99.90
19829;DHT22;10075;50.924;4.396;2023-03-01T06:30:06;0.40;99.90
19829;DHT22;10075;50.924;4.396;2023-03-01T06:32:35;0.40;99.90
19829;DHT22;10075;50.924;4.396;2023-03-01T06:35:03;0.50;99.90
19829;DHT22;10075;50.924;4.396;2023-03-01T06:37:30;0.50;99.90
19829;DHT22;10075;50.924;4.396;2023-03-01T06:39:57;0.50;99.90
19829;DHT22;10075;50.924;4.396;2023-03-01T06:42:24;0.50;99.90
19829;DHT22;10075;50.924;4.396;2023-03-01T06:44:51;0.50;99.90
19829;DHT22;10075;50.924;4.396;2023-03-01T06:47:19;0.50;99.90
19829;DHT22;10075;50.924;4.396;2023-03-01T06:49:46;0.50;99.90
19829;DHT22;10075;50.924;4.396;2023-03-01T06:52:13;0.50;99.90
19829;DHT22;10075;50.924;4.396;2023-03-01T06:54:40;0.60;99.90
19829;DHT22;10075;50.924;4.396;2023-03-01T06:57:07;0.60;99.90
19829;DHT22;10075;50.924;4.396;2023-03-01T06:59:34;0.60;99.90
19829;DHT22;10075;50.924;4.396;2023-03-01T07:02:01;0.70;99.90
19829;DHT22;10075;50.924;4.396;2023-03-01T07:04:29;0.80;99.90
19829;DHT22;10075;50.924;4.396;2023-03-01T07:06:56;0.70;99.90
19829;DHT22;10075;50.924;4.396;2023-03-01T07:09:24;0.70;99.90
19829;DHT22;10075;50.924;4.396;2023-03-01T07:11:51;0.80;99.90
19829;DHT22;10075;50.924;4.396;2023-03-01T07:14:18;0.80;99.90
19829;DHT22;10075;50.924;4.396;2023-03-01T07:16:45;0.90;99.90
19829;DHT22;10075;50.924;4.396;2023-03-01T07:19:12;0.90;99.90
19829;DHT22;10075;50.924;4.396;2023-03-01T07:21:41;1.00;99.90
19829;DHT22;10075;50.924;4.396;2023-03-01T07:24:09;1.00;99.90
19829;DHT22;10075;50.924;4.396;2023-03-01T07:26:36;1.00;99.90
19829;DHT22;10075;50.924;4.396;2023-03-01T07:29:06;1.00;99.90
19829;DHT22;10075;50.924;4.396;2023-03-01T07:31:34;1.00;99.90
19829;DHT22;10075;50.924;4.396;2023-03-01T07:34:01;1.10;99.90
19829;DHT22;10075;50.924;4.396;2023-03-01T07:36:28;1.20;99.90
19829;DHT22;10075;50.924;4.396;2023-03-01T07:38:56;1.20;99.90
19829;DHT22;10075;50.924;4.396;2023-03-01T07:41:23;1.20;99.90
19829;DHT22;10075;50.924;4.396;2023-03-01T07:43:50;1.20;99.90
19829;DHT22;10075;50.924;4.396;2023-03-01T07:46:17;1.20;99.90
19829;DHT22;10075;50.924;4.396;2023-03-01T07:48:44;1.30;99.90
19829;DHT22;10075;50.924;4.396;2023-03-01T07:51:11;1.40;99.90
19829;DHT22;10075;50.924;4.396;2023-03-01T07:53:38;1.50;99.90
19829;DHT22;10075;50.924;4.396;2023-03-01T07:56:09;1.60;99.90
19829;DHT22;10075;50.924;4.396;2023-03-01T07:58:37;1.60;99.90
19829;DHT22;10075;50.924;4.396;2023-03-01T08:01:06;1.70;99.90
19829;DHT22;10075;50.924;4.396;2023-03-01T08:03:34;1.70;99.90
19829;DHT22;10075;50.924;4.396;2023-03-01T08:06:02;1.80;99.90
19829;DHT22;10075;50.924;4.396;2023-03-01T08:08:30;1.80;99.90
19829;DHT22;10075;50.924;4.396;2023-03-01T08:10:57;1.90;99.90
19829;DHT22;10075;50.924;4.396;2023-03-01T08:13:26;2.00;99.90
19829;DHT22;10075;50.924;4.396;2023-03-01T08:15:53;2.10;99.90
19829;DHT22;10075;50.924;4.396;2023-03-01T08:18:21;2.20;99.90
19829;DHT22;10075;50.924;4.396;2023-03-01T08:20:48;2.20;99.90
19829;DHT22;10075;50.924;4.396;2023-03-01T08:23:14;2.30;99.90
19829;DHT22;10075;50.924;4.396;2023-03-01T08:25:41;2.40;99.90
19829;DHT22;10075;50.924;4.396;2023-03-01T08:28:08;2.50;99.90
19829;DHT22;10075;50.924;4.396;2023-03-01T08:30:37;2.60;99.90
19829;DHT22;10075;50.924;4.396;2023-03-01T08:33:04;2.60;99.90
19829;DHT22;10075;50.924;4.396;2023-03-01T08:35:31;2.60;99.90
19829;DHT22;10075;50.924;4.396;2023-03-01T08:37:58;2.70;99.90
19829;DHT22;10075;50.924;4.396;2023-03-01T08:40:25;2.80;99.90
19829;DHT22;10075;50.924;4.396;2023-03-01T08:42:52;2.90;99.90
19829;DHT22;10075;50.924;4.396;2023-03-01T08:45:19;3.00;99.90
19829;DHT22;10075;50.924;4.396;2023-03-01T08:47:47;3.10;99.90
19829;DHT22;10075;50.924;4.396;2023-03-01T08:50:15;3.10;99.90
19829;DHT22;10075;50.924;4.396;2023-03-01T08:52:42;3.20;99.90
19829;DHT22;10075;50.924;4.396;2023-03-01T08:55:09;3.20;99.90
19829;DHT22;10075;50.924;4.396;2023-03-01T08:57:36;3.30;99.90
19829;DHT22;10075;50.924;4.396;2023-03-01T09:00:04;3.40;99.90
19829;DHT22;10075;50.924;4.396;2023-03-01T09:02:34;3.40;99.90
19829;DHT22;10075;50.924;4.396;2023-03-01T09:05:02;3.40;99.90
19829;DHT22;10075;50.924;4.396;2023-03-01T09:07:29;3.50;99.90
19829;DHT22;10075;50.924;4.396;2023-03-01T09:09:56;3.60;99.90
19829;DHT22;10075;50.924;4.396;2023-03-01T09:12:23;3.60;99.90
19829;DHT22;10075;50.924;4.396;2023-03-01T09:14:51;3.70;99.90
19829;DHT22;10075;50.924;4.396;2023-03-01T09:17:18;3.80;99.90
19829;DHT22;10075;50.924;4.396;2023-03-01T09:19:47;3.80;99.90
19829;DHT22;10075;50.924;4.396;2023-03-01T09:22:16;3.90;99.90
19829;DHT22;10075;50.924;4.396;2023-03-01T09:24:43;4.00;99.90
19829;DHT22;10075;50.924;4.396;2023-03-01T09:27:10;4.00;99.90
19829;DHT22;10075;50.924;4.396;2023-03-01T09:29:38;4.20;99.90
19829;DHT22;10075;50.924;4.396;2023-03-01T09:32:05;4.30;99.90
19829;DHT22;10075;50.924;4.396;2023-03-01T09:34:33;4.50;99.90
19829;DHT22;10075;50.924;4.396;2023-03-01T09:37:22;4.60;99.90
19829;DHT22;10075;50.924;4.396;2023-03-01T09:39:49;4.60;99.90
19829;DHT22;10075;50.924;4.396;2023-03-01T09:42:16;4.70;99.90
19829;DHT22;10075;50.924;4.396;2023-03-01T09:44:46;4.70;99.90
19829;DHT22;10075;50.924;4.396;2023-03-01T09:47:18;4.80;99.90
19829;DHT22;10075;50.924;4.396;2023-03-01T09:49:53;4.90;99.90
19829;DHT22;10075;50.924;4.396;2023-03-01T09:52:30;5.00;99.90
19829;DHT22;10075;50.924;4.396;2023-03-01T09:54:59;5.00;99.90
19829;DHT22;10075;50.924;4.396;2023-03-01T09:57:30;5.00;99.90
19829;DHT22;10075;50.924;4.396;2023-03-01T10:00:28;5.10;99.90
19829;DHT22;10075;50.924;4.396;2023-03-01T10:03:00;5.20;99.90
19829;DHT22;10075;50.924;4.396;2023-03-01T10:05:38;5.20;99.90
19829;DHT22;10075;50.924;4.396;2023-03-01T10:08:28;5.40;99.90
19829;DHT22;10075;50.924;4.396;2023-03-01T10:10:57;5.40;99.90
19829;DHT22;10075;50.924;4.396;2023-03-01T10:13:29;5.40;99.90
19829;DHT22;10075;50.924;4.396;2023-03-01T10:16:06;5.40;99.90
19829;DHT22;10075;50.924;4.396;2023-03-01T10:18:37;5.60;99.90
19829;DHT22;10075;50.924;4.396;2023-03-01T10:21:14;5.60;99.90
19829;DHT22;10075;50.924;4.396;2023-03-01T10:23:43;5.70;99.90
19829;DHT22;10075;50.924;4.396;2023-03-01T10:26:24;5.80;99.90
19829;DHT22;10075;50.924;4.396;2023-03-01T10:29:01;5.90;99.90
19829;DHT22;10075;50.924;4.396;2023-03-01T10:31:38;5.90;99.90
19829;DHT22;10075;50.924;4.396;2023-03-01T10:34:11;5.90;99.90
19829;DHT22;10075;50.924;4.396;2023-03-01T10:36:40;5.90;99.90
19829;DHT22;10075;50.924;4.396;2023-03-01T10:39:14;6.00;99.90
19829;DHT22;10075;50.924;4.396;2023-03-01T10:41:56;6.10;99.90
19829;DHT22;10075;50.924;4.396;2023-03-01T10:44:45;6.10;99.90
19829;DHT22;10075;50.924;4.396;2023-03-01T10:47:18;6.10;99.90
19829;DHT22;10075;50.924;4.396;2023-03-01T10:49:56;6.20;99.90
19829;DHT22;10075;50.924;4.396;2023-03-01T10:52:26;6.20;99.90
19829;DHT22;10075;50.924;4.396;2023-03-01T10:54:57;6.30;99.90
19829;DHT22;10075;50.924;4.396;2023-03-01T10:57:36;6.50;99.90
19829;DHT22;10075;50.924;4.396;2023-03-01T11:00:16;6.60;99.40
19829;DHT22;10075;50.924;4.396;2023-03-01T11:02:50;6.70;99.30
19829;DHT22;10075;50.924;4.396;2023-03-01T11:05:20;6.80;98.90
19829;DHT22;10075;50.924;4.396;2023-03-01T11:07:51;6.70;98.60
19829;DHT22;10075;50.924;4.396;2023-03-01T11:10:23;6.60;99.10
19829;DHT22;10075;50.924;4.396;2023-03-01T11:12:51;6.60;99.10
19829;DHT22;10075;50.924;4.396;2023-03-01T11:15:24;6.50;99.00
19829;DHT22;10075;50.924;4.396;2023-03-01T11:17:52;6.60;98.70
19829;DHT22;10075;50.924;4.396;2023-03-01T11:20:25;6.70;98.50
19829;DHT22;10075;50.924;4.396;2023-03-01T11:22:54;6.60;98.30
19829;DHT22;10075;50.924;4.396;2023-03-01T11:25:26;6.60;98.80
19829;DHT22;10075;50.924;4.396;2023-03-01T11:27:55;6.70;98.70
19829;DHT22;10075;50.924;4.396;2023-03-01T11:30:27;6.80;98.30
19829;DHT22;10075;50.924;4.396;2023-03-01T11:33:06;6.90;98.20
19829;DHT22;10075;50.924;4.396;2023-03-01T11:35:41;7.00;98.20
19829;DHT22;10075;50.924;4.396;2023-03-01T11:38:22;6.90;98.40
19829;DHT22;10075;50.924;4.396;2023-03-01T11:40:54;6.90;98.50
19829;DHT22;10075;50.924;4.396;2023-03-01T11:43:32;7.10;98.00
19829;DHT22;10075;50.924;4.396;2023-03-01T11:46:27;7.20;97.90
19829;DHT22;10075;50.924;4.396;2023-03-01T11:49:04;7.40;97.40
19829;DHT22;10075;50.924;4.396;2023-03-01T11:51:41;7.30;97.30
19829;DHT22;10075;50.924;4.396;2023-03-01T11:54:16;7.30;97.10
19829;DHT22;10075;50.924;4.396;2023-03-01T11:56:50;7.40;97.20
19829;DHT22;10075;50.924;4.396;2023-03-01T11:59:33;7.50;97.10
19829;DHT22;10075;50.924;4.396;2023-03-01T12:05:24;7.70;96.50
19829;DHT22;10075;50.924;4.396;2023-03-01T12:07:56;7.70;96.50
19829;DHT22;10075;50.924;4.396;2023-03-01T12:10:27;7.80;96.20
19829;DHT22;10075;50.924;4.396;2023-03-01T12:13:25;7.80;96.00
19829;DHT22;10075;50.924;4.396;2023-03-01T12:16:07;7.80;95.90
19829;DHT22;10075;50.924;4.396;2023-03-01T12:19:02;7.80;96.00
19829;DHT22;10075;50.924;4.396;2023-03-01T12:21:42;7.80;95.60
19829;DHT22;10075;50.924;4.396;2023-03-01T12:24:41;7.80;95.80
19829;DHT22;10075;50.924;4.396;2023-03-01T12:27:23;8.00;95.00
19829;DHT22;10075;50.924;4.396;2023-03-01T12:29:59;8.00;95.20
19829;DHT22;10075;50.924;4.396;2023-03-01T12:32:42;8.00;95.70
19829;DHT22;10075;50.924;4.396;2023-03-01T12:35:28;8.00;95.70
19829;DHT22;10075;50.924;4.396;2023-03-01T12:38:06;8.20;95.70
19829;DHT22;10075;50.924;4.396;2023-03-01T12:41:10;8.30;95.50
19829;DHT22;10075;50.924;4.396;2023-03-01T12:43:47;8.50;94.80
19829;DHT22;10075;50.924;4.396;2023-03-01T12:46:28;8.50;93.70
19829;DHT22;10075;50.924;4.396;2023-03-01T12:49:08;8.40;94.10
19829;DHT22;10075;50.924;4.396;2023-03-01T12:51:38;8.20;94.10
19829;DHT22;10075;50.924;4.396;2023-03-01T12:54:14;8.10;93.90
19829;DHT22;10075;50.924;4.396;2023-03-01T12:56:42;8.10;94.10
19829;DHT22;10075;50.924;4.396;2023-03-01T12:59:20;8.10;94.70
19829;DHT22;10075;50.924;4.396;2023-03-01T13:01:56;8.20;94.60
19829;DHT22;10075;50.924;4.396;2023-03-01T13:04:40;8.30;94.90
19829;DHT22;10075;50.924;4.396;2023-03-01T13:07:25;8.40;94.60
19829;DHT22;10075;50.924;4.396;2023-03-01T13:10:05;8.50;94.50
19829;DHT22;10075;50.924;4.396;2023-03-01T13:12:50;8.60;93.70
19829;DHT22;10075;50.924;4.396;2023-03-01T13:15:29;8.60;93.80
19829;DHT22;10075;50.924;4.396;2023-03-01T13:17:59;8.50;93.40
19829;DHT22;10075;50.924;4.396;2023-03-01T13:20:31;8.40;93.70
19829;DHT22;10075;50.924;4.396;2023-03-01T13:23:12;8.30;94.30
19829;DHT22;10075;50.924;4.396;2023-03-01T13:29:01;8.30;93.30
19829;DHT22;10075;50.924;4.396;2023-03-01T13:31:58;8.20;93.40
19829;DHT22;10075;50.924;4.396;2023-03-01T13:34:53;8.20;93.40
19829;DHT22;10075;50.924;4.396;2023-03-01T13:37:35;8.20;93.30
19829;DHT22;10075;50.924;4.396;2023-03-01T13:42:51;8.30;94.10
19829;DHT22;10075;50.924;4.396;2023-03-01T13:45:22;8.50;94.00
19829;DHT22;10075;50.924;4.396;2023-03-01T13:47:55;8.50;94.30
19829;DHT22;10075;50.924;4.396;2023-03-01T13:50:28;8.70;93.50
19829;DHT22;10075;50.924;4.396;2023-03-01T13:52:58;8.80;93.60
19829;DHT22;10075;50.924;4.396;2023-03-01T13:55:32;8.70;93.70
19829;DHT22;10075;50.924;4.396;2023-03-01T13:58:05;8.80;93.60
19829;DHT22;10075;50.924;4.396;2023-03-01T14:00:40;8.80;93.90
19829;DHT22;10075;50.924;4.396;2023-03-01T14:03:13;8.80;93.40
19829;DHT22;10075;50.924;4.396;2023-03-01T14:05:44;8.80;93.40
19829;DHT22;10075;50.924;4.396;2023-03-01T14:08:20;8.80;93.50
19829;DHT22;10075;50.924;4.396;2023-03-01T14:10:58;8.80;93.90
19829;DHT22;10075;50.924;4.396;2023-03-01T14:13:40;8.80;93.60
19829;DHT22;10075;50.924;4.396;2023-03-01T14:16:28;8.80;93.90
19829;DHT22;10075;50.924;4.396;2023-03-01T14:19:07;8.80;93.90
19829;DHT22;10075;50.924;4.396;2023-03-01T14:21:38;8.90;93.20
19829;DHT22;10075;50.924;4.396;2023-03-01T14:24:05;8.80;93.30
19829;DHT22;10075;50.924;4.396;2023-03-01T14:26:35;8.80;93.20
19829;DHT22;10075;50.924;4.396;2023-03-01T14:29:03;8.80;93.30
19829;DHT22;10075;50.924;4.396;2023-03-01T14:31:35;8.80;93.20
19829;DHT22;10075;50.924;4.396;2023-03-01T14:34:03;8.70;93.40
19829;DHT22;10075;50.924;4.396;2023-03-01T14:36:31;8.80;94.00
19829;DHT22;10075;50.924;4.396;2023-03-01T14:39:00;8.80;93.80
19829;DHT22;10075;50.924;4.396;2023-03-01T14:41:33;8.90;92.80
19829;DHT22;10075;50.924;4.396;2023-03-01T14:44:03;8.80;92.80
19829;DHT22;10075;50.924;4.396;2023-03-01T14:46:34;8.80;93.00
19829;DHT22;10075;50.924;4.396;2023-03-01T14:49:03;8.80;92.80
19829;DHT22;10075;50.924;4.396;2023-03-01T14:51:35;8.90;93.10
19829;DHT22;10075;50.924;4.396;2023-03-01T14:54:11;9.00;93.20
19829;DHT22;10075;50.924;4.396;2023-03-01T14:56:46;9.10;92.80
19829;DHT22;10075;50.924;4.396;2023-03-01T14:59:13;9.30;92.60
19829;DHT22;10075;50.924;4.396;2023-03-01T15:01:41;9.40;92.20
19829;DHT22;10075;50.924;4.396;2023-03-01T15:04:12;9.40;92.40
19829;DHT22;10075;50.924;4.396;2023-03-01T15:06:40;9.40;92.20
19829;DHT22;10075;50.924;4.396;2023-03-01T15:09:14;9.40;92.20
19829;DHT22;10075;50.924;4.396;2023-03-01T15:11:42;9.40;92.40
19829;DHT22;10075;50.924;4.396;2023-03-01T15:14:27;9.40;92.00
19829;DHT22;10075;50.924;4.396;2023-03-01T15:16:54;9.40;92.20
19829;DHT22;10075;50.924;4.396;2023-03-01T15:19:24;9.30;92.30
19829;DHT22;10075;50.924;4.396;2023-03-01T15:21:55;9.30;92.00
19829;DHT22;10075;50.924;4.396;2023-03-01T15:24:26;9.40;92.20
19829;DHT22;10075;50.924;4.396;2023-03-01T15:26:56;9.50;92.10
19829;DHT22;10075;50.924;4.396;2023-03-01T15:29:29;9.70;92.20
19829;DHT22;10075;50.924;4.396;2023-03-01T15:31:59;10.20;92.20
19829;DHT22;10075;50.924;4.396;2023-03-01T15:34:30;10.90;91.20
19829;DHT22;10075;50.924;4.396;2023-03-01T15:36:59;11.60;90.60
19829;DHT22;10075;50.924;4.396;2023-03-01T15:39:39;12.40;88.00
19829;DHT22;10075;50.924;4.396;2023-03-01T15:42:10;13.20;84.90
19829;DHT22;10075;50.924;4.396;2023-03-01T15:44:39;13.40;83.80
19829;DHT22;10075;50.924;4.396;2023-03-01T15:47:23;13.60;83.00
19829;DHT22;10075;50.924;4.396;2023-03-01T15:49:53;13.80;82.70
19829;DHT22;10075;50.924;4.396;2023-03-01T15:52:23;13.90;81.90
19829;DHT22;10075;50.924;4.396;2023-03-01T15:54:56;14.00;81.80
19829;DHT22;10075;50.924;4.396;2023-03-01T15:57:24;14.10;80.50
19829;DHT22;10075;50.924;4.396;2023-03-01T15:59:51;14.30;80.40
19829;DHT22;10075;50.924;4.396;2023-03-01T16:02:18;14.60;79.20
19829;DHT22;10075;50.924;4.396;2023-03-01T16:04:46;14.50;79.10
19829;DHT22;10075;50.924;4.396;2023-03-01T16:07:14;14.60;79.00
19829;DHT22;10075;50.924;4.396;2023-03-01T16:09:41;15.00;78.10
19829;DHT22;10075;50.924;4.396;2023-03-01T16:12:13;15.50;77.60
19829;DHT22;10075;50.924;4.396;2023-03-01T16:14:41;15.70;76.20
19829;DHT22;10075;50.924;4.396;2023-03-01T16:17:08;15.80;74.80